LGAV/ATH METAR and TAF weather

Enter ICAO airport designator
Station Type Date Time Source
LGAV METAR 2022/01/25 04:20 UTC NOAA

LGAV 250420Z 02029KT 1000 R03R/1500N SN FEW006 BKN020 OVC070 01/M01 Q1022 NOSIG


Station Type Date Time Source
LGAV Decoded METAR 2022/01/25 04:20 UTC NOAA

Athens Eleftherios Venizelos International Airport, Greece (LGAV) 37-56N 023-56E
Jan 24, 2022 - 11:20 PM EST / 2022.01.25 0420 UTC
Wind: from the NNE (020 degrees) at 33 MPH (29 KT):0
Visibility: less than 1 mile:0
Sky conditions: overcast
Weather: snow
Temperature: 33 F (1 C)
Windchill: 17 F (-8 C):1
Dew Point: 30 F (-1 C)
Relative Humidity: 86%
Pressure (altimeter): 30.18 in. Hg (1022 hPa)
ob: LGAV 250420Z 02029KT 1000 R03R/1500N SN FEW006 BKN020 OVC070 01/M01 Q1022 NOSIG
cycle: 4

Station Type Date Time Source
LGAV TAF 2022/01/25 01:33 UTC NOAA

TAF
AMD TAF
AMD LGAV 250127Z 2501/2524 02025KT 9999 FEW006 BKN020 OVC070
TEMPO 2501/2512 02035G45KT
TEMPO 2501/2512 4000 SN PROB40
TEMPO 2501/2509 0500 TSSN BKN005 SCT018CB OVC020 PROB40 2501/2506 0200 FG SCT004 BKN020
BECMG 2512/2514 36015KT 9999 SCT020

Example: see airport list